createdAt,value
2023-01-25T00:00:01.016Z,1035.2
2023-01-25T00:01:02.864Z,1035.2
2023-01-25T00:02:05.477Z,1035.2
2023-01-25T00:03:06.838Z,1035.2
2023-01-25T00:04:08.537Z,1035.2
2023-01-25T00:05:10.570Z,1035.2
2023-01-25T00:06:12.775Z,1035.2
2023-01-25T00:07:14.228Z,1035.2
2023-01-25T00:08:16.005Z,1035.2
2023-01-25T00:09:17.970Z,1035.3
2023-01-25T00:10:20.443Z,1035.3
2023-01-25T00:11:21.651Z,1035.3
2023-01-25T00:12:23.685Z,1035.3
2023-01-25T00:13:25.560Z,1035.3
2023-01-25T00:14:27.571Z,1035.3
2023-01-25T00:15:29.283Z,1035.3
2023-01-25T00:16:31.278Z,1035.3
2023-01-25T00:17:33.043Z,1035.3
2023-01-25T00:18:34.943Z,1035.3
2023-01-25T00:19:36.877Z,1035.3
2023-01-25T00:20:38.656Z,1035.3
2023-01-25T00:21:40.547Z,1035.3
2023-01-25T00:22:42.578Z,1035.3
2023-01-25T00:23:44.432Z,1035.3
2023-01-25T00:24:46.198Z,1035.3
2023-01-25T00:25:48.177Z,1035.3
2023-01-25T00:26:50.043Z,1035.4
2023-01-25T00:27:51.976Z,1035.4
2023-01-25T00:28:53.939Z,1035.3
2023-01-25T00:29:55.717Z,1035.3
2023-01-25T00:30:57.618Z,1035.4
2023-01-25T00:31:59.902Z,1035.4
2023-01-25T00:33:11.824Z,1035.4
2023-01-25T00:34:13.558Z,1035.4
2023-01-25T00:35:15.480Z,1035.4
2023-01-25T00:36:17.401Z,1035.4
2023-01-25T00:37:19.236Z,1035.4
2023-01-25T00:38:21.211Z,1035.4
2023-01-25T00:39:23.128Z,1035.4
2023-01-25T00:40:25.169Z,1035.4
2023-01-25T00:41:26.818Z,1035.4
2023-01-25T00:42:28.808Z,1035.4
2023-01-25T00:43:30.679Z,1035.4
2023-01-25T00:44:32.466Z,1035.4
2023-01-25T00:45:34.457Z,1035.4
2023-01-25T00:46:36.258Z,1035.3
2023-01-25T00:47:38.156Z,1035.3
2023-01-25T00:48:40.064Z,1035.3
2023-01-25T00:49:42.004Z,1035.3
2023-01-25T00:50:43.828Z,1035.3
2023-01-25T00:51:45.686Z,1035.3
2023-01-25T00:52:47.640Z,1035.3
2023-01-25T00:53:49.502Z,1035.2
2023-01-25T00:54:51.382Z,1035.2
2023-01-25T00:55:53.322Z,1035.2
2023-01-25T00:56:55.575Z,1035.2
2023-01-25T00:57:56.976Z,1035.2
2023-01-25T00:58:58.976Z,1035.2
2023-01-25T01:00:00.881Z,1035.2
2023-01-25T01:01:03.287Z,1035.2
2023-01-25T01:02:04.577Z,1035.2
2023-01-25T01:03:06.418Z,1035.2
2023-01-25T01:04:08.562Z,1035.2
2023-01-25T01:05:11.482Z,1035.2
2023-01-25T01:06:22.712Z,1035.2
2023-01-25T01:07:24.540Z,1035.2
2023-01-25T01:08:26.479Z,1035.2
2023-01-25T01:09:28.477Z,1035.2
2023-01-25T01:10:30.205Z,1035.2
2023-01-25T01:11:32.205Z,1035.2
2023-01-25T01:12:34.965Z,1035.2
2023-01-25T01:13:35.924Z,1035.2
2023-01-25T01:14:38.091Z,1035.2
2023-01-25T01:15:39.705Z,1035.2
2023-01-25T01:16:41.900Z,1035.2
2023-01-25T01:17:43.405Z,1035.2
2023-01-25T01:18:45.352Z,1035.2
2023-01-25T01:19:47.299Z,1035.2
2023-01-25T01:20:49.113Z,1035.2
2023-01-25T01:21:51.009Z,1035.2
2023-01-25T01:22:52.924Z,1035.2
2023-01-25T01:23:54.784Z,1035.2
2023-01-25T01:24:56.664Z,1035.2
2023-01-25T01:25:58.611Z,1035.1
2023-01-25T01:27:00.437Z,1035.1
2023-01-25T01:28:02.335Z,1035.1
2023-01-25T01:29:04.327Z,1035.1
2023-01-25T01:30:06.168Z,1035.1
2023-01-25T01:31:08.028Z,1035.1
2023-01-25T01:32:10.289Z,1035.1
2023-01-25T01:33:11.800Z,1035.1
2023-01-25T01:34:13.709Z,1035.1
2023-01-25T01:35:15.702Z,1035.1
2023-01-25T01:36:17.562Z,1035.1
2023-01-25T01:37:19.388Z,1035.1
2023-01-25T01:38:21.302Z,1035.1
2023-01-25T01:39:23.667Z,1035.1
2023-01-25T01:40:25.155Z,1035.1
2023-01-25T01:41:27.015Z,1035.1
2023-01-25T01:42:28.955Z,1035.1
2023-01-25T01:43:31.311Z,1035.1
2023-01-25T01:44:32.651Z,1035.1
2023-01-25T01:45:34.697Z,1035.1
2023-01-25T01:46:36.352Z,1035.1
2023-01-25T01:47:38.614Z,1035.1
2023-01-25T01:48:40.171Z,1035.1
2023-01-25T01:49:41.991Z,1035.1
2023-01-25T01:50:43.992Z,1035
2023-01-25T01:51:46.058Z,1035
2023-01-25T01:52:47.820Z,1035
2023-01-25T01:53:49.571Z,1035
2023-01-25T01:54:51.512Z,1035
2023-01-25T01:55:53.430Z,1035
2023-01-25T01:56:55.210Z,1035
2023-01-25T01:57:57.213Z,1035
2023-01-25T01:58:59.003Z,1035
2023-01-25T02:00:00.862Z,1035
2023-01-25T02:01:03.005Z,1035
2023-01-25T02:02:04.766Z,1035
2023-01-25T02:03:06.486Z,1035
2023-01-25T02:04:08.360Z,1035
2023-01-25T02:05:10.499Z,1035
2023-01-25T02:06:12.179Z,1035
2023-01-25T02:07:14.140Z,1035
2023-01-25T02:08:15.888Z,1035
2023-01-25T02:09:17.842Z,1035
2023-01-25T02:10:19.700Z,1035
2023-01-25T02:11:21.739Z,1035
2023-01-25T02:12:23.703Z,1035
2023-01-25T02:13:25.420Z,1035.1
2023-01-25T02:14:27.359Z,1035.1
2023-01-25T02:15:29.160Z,1035.1
2023-01-25T02:16:31.119Z,1035.1
2023-01-25T02:17:32.922Z,1035.1
2023-01-25T02:18:34.884Z,1035.1
2023-01-25T02:19:36.700Z,1035.1
2023-01-25T02:20:38.641Z,1035.1
2023-01-25T02:21:40.613Z,1035.1
2023-01-25T02:22:42.350Z,1035.1
2023-01-25T02:23:44.590Z,1035.1
2023-01-25T02:24:46.139Z,1035.1
2023-01-25T02:25:48.589Z,1035.1
2023-01-25T02:26:49.924Z,1035.1
2023-01-25T02:27:51.845Z,1035.1
2023-01-25T02:28:53.647Z,1035.1
2023-01-25T02:29:56.066Z,1035.1
2023-01-25T02:30:57.651Z,1035.1
2023-01-25T02:31:59.555Z,1035
2023-01-25T02:33:01.294Z,1035
2023-01-25T02:34:03.509Z,1035
2023-01-25T02:35:05.197Z,1035
2023-01-25T02:36:17.250Z,1035
2023-01-25T02:37:19.409Z,1035
2023-01-25T02:38:21.528Z,1035
2023-01-25T02:39:22.873Z,1035
2023-01-25T02:40:24.790Z,1035
2023-01-25T02:41:26.755Z,1035
2023-01-25T02:42:28.808Z,1035
2023-01-25T02:43:30.446Z,1034.9
2023-01-25T02:44:34.706Z,1034.9
2023-01-25T02:45:44.506Z,1034.9
2023-01-25T02:46:46.845Z,1034.9
2023-01-25T02:47:48.459Z,1034.9
2023-01-25T02:48:50.151Z,1034.9
2023-01-25T02:49:52.045Z,1034.9
2023-01-25T02:50:54.212Z,1034.9
2023-01-25T02:51:56.197Z,1034.9
2023-01-25T02:52:57.804Z,1034.8
2023-01-25T02:53:59.666Z,1034.9
2023-01-25T02:55:01.595Z,1034.8
2023-01-25T02:56:03.431Z,1034.8
2023-01-25T02:57:05.325Z,1034.8
2023-01-25T02:58:07.302Z,1034.8
2023-01-25T02:59:09.085Z,1034.8
2023-01-25T03:00:11.433Z,1034.9
2023-01-25T03:01:13.005Z,1034.9
2023-01-25T03:02:14.933Z,1034.9
2023-01-25T03:03:16.690Z,1034.9
2023-01-25T03:04:18.551Z,1034.9
2023-01-25T03:05:20.381Z,1035
2023-01-25T03:06:22.304Z,1035
2023-01-25T03:07:24.247Z,1035
2023-01-25T03:08:26.099Z,1035
2023-01-25T03:09:27.899Z,1035
2023-01-25T03:10:29.925Z,1035
2023-01-25T03:11:31.713Z,1035
2023-01-25T03:12:33.600Z,1034.9
2023-01-25T03:13:35.636Z,1034.9
2023-01-25T03:14:37.341Z,1034.9
2023-01-25T03:15:39.339Z,1034.9
2023-01-25T03:16:41.120Z,1034.9
2023-01-25T03:17:43.099Z,1034.9
2023-01-25T03:18:44.958Z,1034.9
2023-01-25T03:19:46.859Z,1034.9
2023-01-25T03:20:48.737Z,1034.9
2023-01-25T03:21:50.570Z,1034.9
2023-01-25T03:22:52.507Z,1034.9
2023-01-25T03:23:54.565Z,1034.9
2023-01-25T03:24:56.704Z,1034.8
2023-01-25T03:25:58.124Z,1034.8
2023-01-25T03:27:00.017Z,1034.8
2023-01-25T03:28:01.858Z,1034.8
2023-01-25T03:29:04.279Z,1034.8
2023-01-25T03:30:05.696Z,1034.7
2023-01-25T03:31:07.528Z,1034.8
2023-01-25T03:32:09.694Z,1034.7
2023-01-25T03:33:11.615Z,1034.7
2023-01-25T03:34:13.236Z,1034.7
2023-01-25T03:35:15.075Z,1034.7
2023-01-25T03:36:17.214Z,1034.7
2023-01-25T03:37:18.856Z,1034.8
2023-01-25T03:38:20.785Z,1034.8
2023-01-25T03:39:22.999Z,1034.8
2023-01-25T03:40:24.580Z,1034.8
2023-01-25T03:41:26.560Z,1034.7
2023-01-25T03:42:28.396Z,1034.7
2023-01-25T03:43:30.379Z,1034.7
2023-01-25T03:44:32.300Z,1034.7
2023-01-25T03:45:34.119Z,1034.7
2023-01-25T03:46:36.136Z,1034.7
2023-01-25T03:47:37.839Z,1034.7
2023-01-25T03:48:39.779Z,1034.7
2023-01-25T03:49:41.700Z,1034.7
2023-01-25T03:50:43.480Z,1034.7
2023-01-25T03:51:45.372Z,1034.7
2023-01-25T03:52:47.281Z,1034.7
2023-01-25T03:53:49.167Z,1034.7
2023-01-25T03:54:51.120Z,1034.7
2023-01-25T03:55:52.921Z,1034.7
2023-01-25T03:56:54.800Z,1034.7
2023-01-25T03:57:56.653Z,1034.7
2023-01-25T03:58:58.615Z,1034.7
2023-01-25T04:00:00.553Z,1034.7
2023-01-25T04:01:02.459Z,1034.7
2023-01-25T04:02:04.355Z,1034.7
2023-01-25T04:03:06.056Z,1034.7
2023-01-25T04:04:07.917Z,1034.7
2023-01-25T04:05:10.821Z,1034.7
2023-01-25T04:06:22.102Z,1034.7
2023-01-25T04:07:24.009Z,1034.7
2023-01-25T04:08:25.817Z,1034.7
2023-01-25T04:09:27.788Z,1034.7
2023-01-25T04:10:29.648Z,1034.7
2023-01-25T04:11:31.390Z,1034.7
2023-01-25T04:12:33.362Z,1034.7
2023-01-25T04:13:35.163Z,1034.7
2023-01-25T04:14:45.101Z,1034.6
2023-01-25T04:15:49.410Z,1034.6
2023-01-25T04:16:51.434Z,1034.6
2023-01-25T04:17:53.080Z,1034.7
2023-01-25T04:18:55.059Z,1034.7
2023-01-25T04:19:56.770Z,1034.7
2023-01-25T04:20:58.793Z,1034.6
2023-01-25T04:22:00.671Z,1034.6
2023-01-25T04:23:02.441Z,1034.6
2023-01-25T04:24:05.093Z,1034.6
2023-01-25T04:25:06.402Z,1034.6
2023-01-25T04:26:18.493Z,1034.6
2023-01-25T04:27:20.304Z,1034.6
2023-01-25T04:28:22.214Z,1034.6
2023-01-25T04:29:41.340Z,1034.6
2023-01-25T04:30:46.663Z,1034.6
2023-01-25T04:31:48.909Z,1034.6
2023-01-25T04:32:50.618Z,1034.6
2023-01-25T04:33:52.283Z,1034.6
2023-01-25T16:36:07.441Z,1031.9
2023-01-25T16:37:19.245Z,1031.9
2023-01-25T16:38:59.568Z,1031.9
2023-01-25T16:40:17.310Z,1031.8
2023-01-25T16:41:42.290Z,1031.7
2023-01-25T16:43:42.370Z,1031.7
2023-01-25T16:56:33.732Z,1031.2
2023-01-25T16:57:53.708Z,1031.1
2023-01-25T16:59:09.217Z,1031.1
2023-01-25T17:00:23.733Z,1031.1
2023-01-25T17:01:43.151Z,1031
2023-01-25T17:03:02.568Z,1031
2023-01-25T17:04:52.536Z,1031.1
